METAR Data
IDs: Format: Raw Decoded Include TAF

Data at: 0455 UTC 30 Jun 2022

KABY 300353Z AUTO 05004KT 10SM FEW120 23/22 A3021 RMK AO2 RAE52 SLP226 P0000 T02330222